Time;durP1;ratioP1;P1;durP2;ratioP2;P2;SDS_P1;SDS_P2;PMS_P1;PMS_P2;Temp;Humidity;BMP_temperature;BMP_pressure;BME280_temperature;BME280_humidity;BME280_pressure;Samples;Min_cycle;Max_cycle;Signal;HPM_P1;HPM_P2
2023/10/25 00:02:21;;;;;;;7.22;4.97;;;9.50;99.90;;;;;;4940276;28;88600;-32
2023/10/25 00:04:46;;;;;;;5.88;3.95;;;9.50;99.90;;;;;;4938693;28;90241;-32
2023/10/25 00:07:12;;;;;;;5.53;4.10;;;9.50;99.90;;;;;;4940560;28;89504;-31
2023/10/25 00:09:38;;;;;;;8.13;4.53;;;9.50;99.90;;;;;;4938838;28;89398;-32
2023/10/25 00:12:04;;;;;;;7.65;4.38;;;9.40;99.90;;;;;;4938996;28;89781;-32
2023/10/25 00:14:29;;;;;;;7.38;4.47;;;9.40;99.90;;;;;;4940425;28;89449;-33
2023/10/25 00:16:55;;;;;;;6.80;4.93;;;9.50;99.90;;;;;;4939352;28;89649;-30
2023/10/25 00:19:20;;;;;;;5.20;4.43;;;9.40;99.90;;;;;;4939775;28;90378;-31
2023/10/25 00:21:46;;;;;;;6.35;5.45;;;9.40;99.90;;;;;;4921055;28;90625;-32
2023/10/25 00:24:12;;;;;;;4.88;3.90;;;9.40;99.90;;;;;;4939849;28;88884;-34
2023/10/25 00:26:37;;;;;;;5.18;4.38;;;9.30;99.90;;;;;;4938670;28;90059;-34
2023/10/25 00:29:03;;;;;;;6.30;5.05;;;9.30;99.90;;;;;;4939685;28;89486;-32
2023/10/25 00:31:29;;;;;;;9.55;4.43;;;9.30;99.90;;;;;;4939620;28;90652;-30
2023/10/25 00:33:55;;;;;;;5.90;3.80;;;9.30;99.90;;;;;;4938427;28;89974;-33
2023/10/25 00:36:21;;;;;;;7.70;4.03;;;9.30;99.90;;;;;;4939445;28;90194;-32
2023/10/25 00:38:46;;;;;;;4.88;4.35;;;9.30;99.90;;;;;;4938183;28;89251;-34
2023/10/25 00:41:12;;;;;;;6.18;4.47;;;9.30;99.90;;;;;;4940126;28;88988;-34
2023/10/25 00:43:37;;;;;;;5.72;3.95;;;9.20;99.90;;;;;;4938734;28;90226;-33
2023/10/25 00:46:14;;;;;;;6.57;3.63;;;9.20;99.90;;;;;;4938912;28;90034;-34
2023/10/25 00:48:45;;;;;;;8.00;3.83;;;9.20;99.90;;;;;;4939021;28;90100;-31
2023/10/25 00:51:13;;;;;;;6.32;5.15;;;9.20;99.90;;;;;;4939637;28;89730;-31
2023/10/25 00:53:42;;;;;;;7.10;6.00;;;9.20;99.90;;;;;;4939322;28;90283;-31
2023/10/25 00:56:10;;;;;;;7.65;4.68;;;9.20;99.90;;;;;;4939218;28;89663;-32
2023/10/25 00:58:37;;;;;;;6.88;4.18;;;9.20;99.90;;;;;;4939060;28;90062;-32
2023/10/25 01:01:04;;;;;;;6.00;4.70;;;9.10;99.90;;;;;;4938380;28;89634;-33
2023/10/25 01:03:30;;;;;;;12.05;5.20;;;9.10;99.90;;;;;;4939766;28;91194;-33
2023/10/25 01:05:55;;;;;;;6.18;4.28;;;9.10;99.90;;;;;;4938660;28;89762;-31
2023/10/25 01:08:22;;;;;;;6.57;3.60;;;9.10;99.90;;;;;;4938322;28;89049;-32
2023/10/25 01:10:52;;;;;;;12.73;5.43;;;9.10;99.90;;;;;;4938681;28;89871;-31
2023/10/25 01:13:18;;;;;;;5.82;4.57;;;9.10;99.90;;;;;;4938035;28;91716;-31
2023/10/25 01:15:44;;;;;;;4.25;3.53;;;9.10;99.90;;;;;;4938113;28;89463;-32
2023/10/25 01:18:10;;;;;;;7.53;4.88;;;9.00;99.90;;;;;;4938989;28;90011;-31
2023/10/25 01:20:36;;;;;;;6.68;5.05;;;9.00;99.90;;;;;;4921945;28;88023;-32
2023/10/25 01:23:02;;;;;;;6.35;5.50;;;9.10;99.90;;;;;;4938501;28;90532;-32
2023/10/25 01:25:27;;;;;;;7.80;5.57;;;9.00;99.90;;;;;;4938404;28;89787;-33
2023/10/25 01:27:53;;;;;;;11.07;5.45;;;9.10;99.90;;;;;;4920724;28;89702;-34
2023/10/25 01:30:18;;;;;;;5.95;4.25;;;9.00;99.90;;;;;;4939033;28;89313;-34
2023/10/25 01:32:44;;;;;;;7.95;4.50;;;9.00;99.90;;;;;;4937786;28;90557;-32
2023/10/25 01:35:12;;;;;;;6.35;4.32;;;9.00;99.90;;;;;;4937140;28;91049;-33
2023/10/25 01:37:39;;;;;;;8.18;4.40;;;9.00;99.90;;;;;;4937536;28;90767;-32
2023/10/25 01:40:05;;;;;;;7.85;5.75;;;9.00;99.90;;;;;;4938860;28;88914;-33
2023/10/25 01:42:31;;;;;;;7.47;4.90;;;9.00;99.90;;;;;;4937682;28;90469;-32
2023/10/25 01:44:57;;;;;;;6.10;4.78;;;9.00;99.90;;;;;;4939123;28;89548;-31
2023/10/25 01:47:22;;;;;;;9.15;5.22;;;8.90;99.90;;;;;;4938154;28;90266;-30
2023/10/25 01:49:48;;;;;;;6.68;5.93;;;8.90;99.90;;;;;;4940366;28;89128;-32
2023/10/25 01:52:13;;;;;;;8.02;5.68;;;8.90;99.90;;;;;;4941613;28;90174;-32
2023/10/25 01:54:44;;;;;;;7.65;4.95;;;8.90;99.90;;;;;;4941481;28;89707;-34
2023/10/25 01:57:10;;;;;;;9.95;4.93;;;8.90;99.90;;;;;;4940293;28;88950;-32
2023/10/25 01:59:36;;;;;;;8.63;6.55;;;9.00;99.90;;;;;;4941872;28;90334;-30
2023/10/25 02:02:02;;;;;;;8.30;5.00;;;8.90;99.90;;;;;;4941018;28;89969;-31
2023/10/25 02:04:27;;;;;;;6.50;5.30;;;8.90;99.90;;;;;;4941023;28;89842;-35
2023/10/25 02:06:53;;;;;;;8.48;4.88;;;8.90;99.90;;;;;;4924233;28;91262;-30
2023/10/25 02:09:19;;;;;;;8.13;5.50;;;8.90;99.90;;;;;;4941520;28;88997;-32
2023/10/25 02:11:45;;;;;;;7.15;4.75;;;8.90;99.90;;;;;;4938988;28;88934;-32
2023/10/25 02:14:10;;;;;;;6.47;5.00;;;8.80;99.90;;;;;;4941706;28;90509;-33
2023/10/25 02:16:39;;;;;;;6.60;5.78;;;8.90;99.90;;;;;;4940928;28;89236;-33
2023/10/25 02:19:04;;;;;;;7.30;5.72;;;8.80;99.90;;;;;;4935926;28;88872;-32
2023/10/25 02:21:35;;;;;;;7.95;6.30;;;8.80;99.90;;;;;;4941019;28;90609;-32
2023/10/25 02:24:01;;;;;;;5.82;4.53;;;8.80;99.90;;;;;;4940822;28;92726;-31
2023/10/25 02:26:27;;;;;;;6.25;4.20;;;8.80;99.90;;;;;;4940788;28;90567;-31
2023/10/25 02:28:53;;;;;;;6.22;4.13;;;8.70;99.90;;;;;;4938983;28;88734;-31
2023/10/25 02:31:19;;;;;;;10.00;5.90;;;8.70;99.90;;;;;;4940484;28;90469;-32
2023/10/25 02:33:44;;;;;;;9.13;5.15;;;8.70;99.90;;;;;;4940737;28;89324;-33
2023/10/25 02:36:10;;;;;;;4.80;4.05;;;8.70;99.90;;;;;;4940249;28;90746;-32
2023/10/25 02:38:36;;;;;;;8.50;5.43;;;8.70;99.90;;;;;;4941098;28;88895;-32
2023/10/25 02:41:02;;;;;;;7.63;5.32;;;8.70;99.90;;;;;;4940525;28;90300;-32
2023/10/25 02:43:27;;;;;;;7.13;4.25;;;8.70;99.90;;;;;;4940723;28;89859;-32
2023/10/25 02:45:53;;;;;;;7.53;5.55;;;8.70;99.90;;;;;;4940156;28;89271;-31
2023/10/25 02:48:18;;;;;;;8.07;6.07;;;8.60;99.90;;;;;;4940815;28;90038;-29
2023/10/25 02:50:45;;;;;;;8.55;5.68;;;8.60;99.90;;;;;;4922404;28;90033;-32
2023/10/25 02:53:10;;;;;;;10.60;4.95;;;8.60;99.90;;;;;;4941703;28;89772;-30
2023/10/25 02:55:36;;;;;;;11.57;5.70;;;8.60;99.90;;;;;;4939748;28;90256;-33
2023/10/25 02:58:02;;;;;;;6.85;5.35;;;8.60;99.90;;;;;;4940758;28;89632;-34
2023/10/25 03:00:28;;;;;;;7.55;4.90;;;8.60;99.90;;;;;;4939444;28;91320;-32
2023/10/25 03:02:53;;;;;;;11.30;6.38;;;8.60;99.90;;;;;;4940245;28;89594;-33
2023/10/25 03:05:19;;;;;;;6.93;5.90;;;8.60;99.90;;;;;;4941555;28;89676;-31
2023/10/25 03:07:45;;;;;;;6.43;5.35;;;8.60;99.90;;;;;;4939314;28;88853;-30
2023/10/25 03:10:10;;;;;;;5.38;4.82;;;8.60;99.90;;;;;;4940119;28;90621;-33
2023/10/25 03:12:36;;;;;;;6.55;4.75;;;8.60;99.90;;;;;;4939477;28;90246;-32
2023/10/25 03:15:01;;;;;;;16.35;9.05;;;8.60;99.90;;;;;;4941206;28;91070;-31
2023/10/25 03:17:28;;;;;;;11.50;5.22;;;8.50;99.90;;;;;;4939930;28;88126;-31
2023/10/25 03:19:54;;;;;;;10.20;6.00;;;8.50;99.90;;;;;;4940132;28;89895;-34
2023/10/25 03:22:19;;;;;;;8.90;5.60;;;8.50;99.90;;;;;;4939449;28;90389;-33
2023/10/25 03:24:45;;;;;;;6.68;5.07;;;8.50;99.90;;;;;;4939909;28;90342;-33
2023/10/25 03:27:11;;;;;;;7.57;5.93;;;8.50;99.90;;;;;;4939976;28;87770;-34
2023/10/25 03:29:37;;;;;;;9.02;5.72;;;8.50;99.90;;;;;;4923320;28;91956;-32
2023/10/25 03:32:03;;;;;;;7.70;5.40;;;8.50;99.90;;;;;;4921258;28;89666;-35
2023/10/25 03:34:29;;;;;;;5.80;5.03;;;8.50;99.90;;;;;;4940501;28;89382;-33
2023/10/25 03:36:55;;;;;;;6.60;4.75;;;8.40;99.90;;;;;;4938650;28;89402;-32
2023/10/25 03:39:21;;;;;;;15.73;7.43;;;8.40;99.90;;;;;;4940260;28;89547;-34
2023/10/25 03:41:46;;;;;;;9.38;5.07;;;8.40;99.90;;;;;;4938918;28;89877;-34
2023/10/25 03:44:13;;;;;;;7.65;5.25;;;8.40;99.90;;;;;;4939559;28;89769;-34
2023/10/25 03:46:39;;;;;;;5.80;5.22;;;8.40;99.90;;;;;;4939346;28;89125;-31
2023/10/25 03:49:05;;;;;;;13.35;5.75;;;8.40;99.90;;;;;;4939819;28;90712;-33
2023/10/25 03:51:31;;;;;;;6.65;4.95;;;8.40;99.90;;;;;;4938732;28;89903;-31
2023/10/25 03:53:57;;;;;;;12.02;5.00;;;8.40;99.90;;;;;;4939805;28;90084;-30
2023/10/25 03:56:23;;;;;;;14.13;5.45;;;8.40;99.90;;;;;;4939057;28;89504;-30
2023/10/25 03:58:48;;;;;;;7.75;5.43;;;8.40;99.90;;;;;;4939977;28;90377;-32
2023/10/25 04:01:14;;;;;;;6.75;4.80;;;8.30;99.90;;;;;;4938702;28;92161;-33
2023/10/25 04:03:40;;;;;;;7.57;5.30;;;8.30;99.90;;;;;;4939656;28;90086;-32
2023/10/25 04:06:07;;;;;;;9.52;5.32;;;8.30;99.90;;;;;;4939692;28;88345;-32
2023/10/25 04:08:33;;;;;;;10.88;8.63;;;8.30;99.90;;;;;;4938959;28;89978;-34
2023/10/25 04:10:59;;;;;;;5.72;4.63;;;8.30;99.90;;;;;;4937822;28;90251;-33
2023/10/25 04:13:25;;;;;;;9.18;6.07;;;8.30;99.90;;;;;;4920263;28;90981;-30
2023/10/25 04:16:05;;;;;;;8.00;4.97;;;8.30;99.90;;;;;;4938285;28;90927;-31
2023/10/25 04:18:32;;;;;;;5.28;4.78;;;8.30;99.90;;;;;;4939894;28;90392;-32
2023/10/25 04:20:59;;;;;;;10.15;4.22;;;8.30;99.90;;;;;;4938681;28;89978;-33
2023/10/25 04:23:26;;;;;;;5.13;4.50;;;8.30;99.90;;;;;;4940461;28;89712;-32
2023/10/25 04:25:52;;;;;;;6.25;4.90;;;8.20;99.90;;;;;;4937527;28;90084;-32
2023/10/25 04:28:18;;;;;;;6.05;4.97;;;8.20;99.90;;;;;;4940036;28;90132;-31
2023/10/25 04:30:45;;;;;;;6.88;4.13;;;8.30;99.90;;;;;;4939314;28;89129;-34
2023/10/25 04:33:11;;;;;;;6.25;5.25;;;8.20;99.90;;;;;;4938944;28;89521;-31
2023/10/25 04:35:37;;;;;;;11.18;5.75;;;8.20;99.90;;;;;;4938072;28;89871;-32
2023/10/25 04:38:03;;;;;;;10.13;3.75;;;8.20;99.90;;;;;;4939676;28;90222;-31
2023/10/25 04:40:30;;;;;;;7.00;4.45;;;8.20;99.90;;;;;;4938050;28;90233;-31
2023/10/25 04:42:56;;;;;;;7.37;5.40;;;8.20;99.90;;;;;;4939727;28;89821;-32
2023/10/25 04:45:22;;;;;;;5.90;5.07;;;8.10;99.90;;;;;;4939369;28;89130;-33
2023/10/25 04:47:51;;;;;;;7.38;5.07;;;8.10;99.90;;;;;;4938550;28;89351;-30
2023/10/25 04:50:18;;;;;;;4.28;3.88;;;8.20;99.90;;;;;;4938177;28;89918;-34
2023/10/25 04:52:44;;;;;;;4.77;4.03;;;8.20;99.90;;;;;;4938476;28;89145;-32
2023/10/25 04:55:10;;;;;;;8.48;5.68;;;8.20;99.90;;;;;;4937709;28;88552;-33
2023/10/25 04:57:36;;;;;;;9.18;5.25;;;8.10;99.90;;;;;;4938059;28;90740;-32
2023/10/25 05:00:03;;;;;;;6.88;5.05;;;8.20;99.90;;;;;;4939050;28;89944;-33
2023/10/25 05:02:28;;;;;;;6.50;5.07;;;8.20;99.90;;;;;;4938960;28;90096;-30
2023/10/25 05:04:54;;;;;;;8.23;4.53;;;8.10;99.90;;;;;;4938771;28;90727;-33
2023/10/25 05:07:20;;;;;;;6.97;5.45;;;8.20;99.90;;;;;;4939179;28;89989;-32
2023/10/25 05:09:46;;;;;;;12.38;4.20;;;8.20;99.90;;;;;;4938154;28;90531;-33
2023/10/25 05:12:13;;;;;;;11.23;5.10;;;8.10;99.90;;;;;;4939598;28;89479;-32
2023/10/25 05:14:39;;;;;;;8.33;4.47;;;8.10;99.90;;;;;;4937996;28;90711;-33
2023/10/25 05:17:06;;;;;;;6.57;4.95;;;8.10;99.90;;;;;;4938609;28;90412;-31
2023/10/25 05:19:33;;;;;;;10.05;5.55;;;8.10;99.90;;;;;;4939233;28;89431;-30
2023/10/25 05:22:02;;;;;;;12.52;5.40;;;8.10;99.90;;;;;;4938209;28;88413;-33
2023/10/25 05:24:28;;;;;;;5.93;4.53;;;8.10;99.90;;;;;;4928613;28;88382;-32
2023/10/25 05:26:53;;;;;;;8.82;5.95;;;8.10;99.90;;;;;;4941283;28;89327;-34
2023/10/25 05:29:19;;;;;;;8.15;5.25;;;8.10;99.90;;;;;;4942526;28;89944;-31
2023/10/25 05:31:45;;;;;;;7.60;5.35;;;8.00;99.90;;;;;;4940981;28;89563;-33
2023/10/25 05:34:11;;;;;;;5.57;4.80;;;8.00;99.90;;;;;;4930718;28;89829;-32
2023/10/25 05:36:38;;;;;;;6.95;6.22;;;8.00;99.90;;;;;;4940618;28;90216;-33
2023/10/25 05:39:05;;;;;;;9.88;6.00;;;8.00;99.90;;;;;;4940941;28;89220;-32
2023/10/25 05:41:35;;;;;;;9.52;5.32;;;8.00;99.90;;;;;;4941261;28;92322;-31
2023/10/25 05:44:06;;;;;;;8.35;4.07;;;7.90;99.90;;;;;;4942740;28;89021;-30
2023/10/25 05:46:32;;;;;;;5.35;4.80;;;7.90;99.90;;;;;;4940897;28;90374;-34
2023/10/25 05:48:57;;;;;;;7.50;4.75;;;7.90;99.90;;;;;;4942203;28;89778;-29
2023/10/25 05:51:23;;;;;;;7.70;4.95;;;7.90;99.90;;;;;;4978102;22;89721;-32
2023/10/25 05:53:49;;;;;;;8.00;4.82;;;7.80;99.90;;;;;;4963427;28;89797;-32
2023/10/25 05:56:17;;;;;;;7.93;6.32;;;7.90;99.90;;;;;;4965203;28;91485;-33
2023/10/25 05:58:43;;;;;;;5.67;4.20;;;7.80;99.90;;;;;;4970804;28;88983;-31
2023/10/25 06:01:09;;;;;;;11.57;5.68;;;7.80;99.90;;;;;;4978992;28;89210;-32
2023/10/25 06:03:35;;;;;;;9.15;4.18;;;7.80;99.90;;;;;;4972210;28;90734;-34
2023/10/25 06:06:02;;;;;;;8.13;5.43;;;7.80;99.90;;;;;;4961063;28;89821;-32
2023/10/25 06:08:31;;;;;;;8.57;4.95;;;7.80;99.90;;;;;;4965466;28;90117;-32
2023/10/25 06:10:56;;;;;;;9.75;5.72;;;7.80;99.90;;;;;;4980539;28;89029;-32
2023/10/25 06:13:22;;;;;;;4.10;3.70;;;7.80;99.90;;;;;;4980322;28;88783;-32
2023/10/25 06:15:48;;;;;;;5.70;4.78;;;7.80;99.90;;;;;;4980666;28;91772;-31
2023/10/25 06:18:14;;;;;;;5.38;4.55;;;7.80;99.90;;;;;;4979753;28;89427;-33
2023/10/25 06:20:40;;;;;;;10.88;5.13;;;7.80;99.90;;;;;;4978733;28;89922;-33
2023/10/25 06:23:05;;;;;;;5.90;4.47;;;7.70;99.90;;;;;;4981241;28;89270;-32
2023/10/25 06:25:31;;;;;;;5.93;4.43;;;7.70;99.90;;;;;;4972104;28;90060;-32
2023/10/25 06:27:59;;;;;;;4.95;4.18;;;7.70;99.90;;;;;;4971272;28;90278;-33
2023/10/25 06:30:26;;;;;;;11.77;6.73;;;7.70;99.90;;;;;;4981231;28;90814;-31
2023/10/25 06:32:52;;;;;;;5.65;4.05;;;7.70;99.90;;;;;;4962564;28;89005;-31
2023/10/25 06:35:18;;;;;;;5.78;5.18;;;7.60;99.90;;;;;;4944070;28;88788;-32
2023/10/25 06:37:44;;;;;;;6.20;4.75;;;7.70;99.90;;;;;;4967184;28;90873;-32
2023/10/25 06:40:10;;;;;;;5.60;4.18;;;7.60;99.90;;;;;;4970759;28;90858;-30
2023/10/25 06:42:36;;;;;;;7.05;6.13;;;7.60;99.90;;;;;;4968144;28;88567;-31
2023/10/25 06:45:02;;;;;;;6.07;5.53;;;7.60;99.90;;;;;;4970105;28;90486;-32
2023/10/25 06:47:28;;;;;;;4.85;4.45;;;7.60;99.90;;;;;;4966414;28;89642;-35
2023/10/25 06:49:55;;;;;;;6.97;5.45;;;7.60;99.90;;;;;;4961655;28;89498;-33
2023/10/25 06:52:21;;;;;;;8.25;5.45;;;7.60;99.90;;;;;;4966595;28;89005;-31
2023/10/25 06:54:47;;;;;;;9.43;6.13;;;7.60;99.90;;;;;;4970650;28;90326;-32
2023/10/25 06:57:13;;;;;;;13.05;5.82;;;7.50;99.90;;;;;;4966465;28;89784;-32
2023/10/25 06:59:40;;;;;;;16.40;5.63;;;7.60;99.90;;;;;;4969571;28;89799;-35
2023/10/25 07:02:45;;;;;;;5.88;4.72;;;7.60;99.90;;;;;;4970087;28;89144;-31
2023/10/25 07:05:13;;;;;;;6.78;5.38;;;7.60;99.90;;;;;;4966411;28;90408;-30
2023/10/25 07:07:40;;;;;;;7.18;5.20;;;7.60;99.90;;;;;;4958726;28;90464;-32
2023/10/25 07:10:09;;;;;;;9.10;5.82;;;7.60;99.90;;;;;;4977644;28;89329;-33
2023/10/25 07:12:35;;;;;;;12.57;6.78;;;7.60;99.90;;;;;;4977623;28;89301;-32
2023/10/25 07:15:01;;;;;;;6.90;5.68;;;7.60;99.90;;;;;;4976895;28;90688;-32
2023/10/25 07:17:30;;;;;;;5.95;5.40;;;7.70;99.90;;;;;;4977275;28;92189;-31
2023/10/25 07:19:58;;;;;;;7.85;7.07;;;7.80;99.90;;;;;;4976834;28;90534;-32
2023/10/25 07:22:25;;;;;;;6.50;5.35;;;7.70;99.90;;;;;;4959632;28;89734;-32
2023/10/25 07:24:51;;;;;;;11.15;7.32;;;7.80;99.90;;;;;;4977097;28;90840;-31
2023/10/25 07:27:16;;;;;;;6.03;5.40;;;7.90;99.90;;;;;;4977345;28;89710;-32
2023/10/25 07:29:42;;;;;;;8.90;6.95;;;7.90;99.90;;;;;;4975898;28;89884;-32
2023/10/25 07:32:07;;;;;;;12.23;7.18;;;7.90;99.90;;;;;;4976402;28;89153;-32
2023/10/25 07:34:33;;;;;;;7.32;6.13;;;8.00;99.90;;;;;;4976680;28;90778;-33
2023/10/25 07:36:59;;;;;;;10.38;7.88;;;8.10;99.90;;;;;;4975806;28;90140;-33
2023/10/25 07:39:24;;;;;;;8.43;6.15;;;8.10;99.90;;;;;;4974832;28;89680;-31
2023/10/25 07:41:50;;;;;;;9.98;7.20;;;8.10;99.90;;;;;;4974750;28;90478;-36
2023/10/25 07:44:15;;;;;;;9.77;6.57;;;8.20;99.90;;;;;;4977385;28;90274;-33
2023/10/25 07:46:41;;;;;;;14.05;7.50;;;8.20;99.90;;;;;;4957663;28;89936;-33
2023/10/25 07:49:07;;;;;;;7.70;6.93;;;8.30;99.90;;;;;;4969975;28;90195;-32
2023/10/25 07:51:36;;;;;;;11.38;6.90;;;8.30;99.90;;;;;;4970410;28;88952;-32
2023/10/25 07:54:02;;;;;;;8.88;7.22;;;8.40;99.90;;;;;;4967330;28;90537;-31
2023/10/25 07:56:28;;;;;;;9.75;7.68;;;8.40;99.90;;;;;;4968614;28;89898;-33
2023/10/25 07:58:54;;;;;;;9.38;6.32;;;8.50;99.90;;;;;;4963255;28;88375;-32
2023/10/25 08:01:20;;;;;;;15.45;7.88;;;8.50;99.90;;;;;;4958194;28;90445;-34
2023/10/25 08:03:45;;;;;;;10.35;9.10;;;8.50;99.90;;;;;;4961123;28;89344;-32
2023/10/25 08:06:11;;;;;;;12.88;7.82;;;8.60;99.90;;;;;;4961328;28;91263;-31
2023/10/25 08:08:36;;;;;;;10.25;7.63;;;8.60;99.90;;;;;;4969103;28;91432;-31
2023/10/25 08:11:09;;;;;;;10.32;9.18;;;8.60;99.90;;;;;;4979166;28;89029;-33
2023/10/25 08:13:38;;;;;;;8.38;6.85;;;8.70;99.90;;;;;;4978549;28;90342;-32
2023/10/25 08:16:04;;;;;;;12.48;8.23;;;8.70;99.90;;;;;;4966893;28;89349;-31
2023/10/25 08:18:31;;;;;;;10.85;7.85;;;8.80;99.90;;;;;;4958603;28;89803;-31
2023/10/25 08:20:58;;;;;;;9.90;8.68;;;8.80;99.90;;;;;;4959326;28;88079;-33
2023/10/25 08:23:24;;;;;;;11.85;7.65;;;8.80;99.90;;;;;;4959895;28;90228;-32
2023/10/25 08:25:51;;;;;;;10.75;7.80;;;8.80;99.90;;;;;;4959180;28;89827;-34
2023/10/25 08:28:20;;;;;;;9.98;6.65;;;8.80;99.90;;;;;;4959063;28;90009;-32
2023/10/25 08:30:45;;;;;;;9.18;6.68;;;8.90;99.90;;;;;;4972205;28;90276;-32
2023/10/25 08:33:11;;;;;;;9.45;7.70;;;8.90;99.90;;;;;;4959961;28;91772;-33
2023/10/25 08:35:37;;;;;;;8.40;6.97;;;9.00;99.90;;;;;;4959168;28;89776;-34
2023/10/25 08:38:06;;;;;;;8.30;7.43;;;9.00;99.90;;;;;;4967225;28;89984;-32
2023/10/25 08:40:32;;;;;;;10.65;6.45;;;9.00;99.90;;;;;;4959414;28;88222;-31
2023/10/25 08:42:59;;;;;;;9.73;6.60;;;9.00;99.90;;;;;;4958854;28;90295;-32
2023/10/25 08:45:25;;;;;;;10.77;6.50;;;9.10;99.90;;;;;;4960315;28;89472;-32
2023/10/25 08:47:51;;;;;;;8.38;7.65;;;9.10;99.90;;;;;;4967945;28;89203;-31
2023/10/25 08:50:19;;;;;;;15.82;7.38;;;9.20;99.90;;;;;;4964057;28;88792;-31
2023/10/25 08:52:48;;;;;;;8.38;7.32;;;9.20;99.90;;;;;;4959640;28;90155;-31
2023/10/25 08:55:17;;;;;;;11.90;7.40;;;9.20;99.90;;;;;;4962814;28;90518;-33
2023/10/25 08:57:43;;;;;;;9.90;7.90;;;9.30;99.90;;;;;;4978624;28;91765;-32
2023/10/25 09:00:11;;;;;;;10.85;6.78;;;9.30;99.90;;;;;;4969098;28;90094;-30
2023/10/25 09:02:37;;;;;;;;;;;9.40;99.90;;;;;;4977726;28;89728;-30
2023/10/25 09:05:06;;;;;;;15.88;7.85;;;9.40;99.90;;;;;;4979342;28;89227;-32
2023/10/25 09:07:35;;;;;;;9.43;6.93;;;9.40;99.90;;;;;;4977699;28;88863;-32
2023/10/25 09:10:11;;;;;;;11.30;7.00;;;9.50;99.90;;;;;;4978173;28;89449;-31
2023/10/25 09:12:37;;;;;;;9.60;6.40;;;9.60;99.90;;;;;;4978683;28;90173;-33
2023/10/25 09:15:03;;;;;;;12.85;7.70;;;9.60;99.90;;;;;;4977229;28;87859;-32
2023/10/25 09:17:31;;;;;;;15.85;8.52;;;9.70;99.90;;;;;;4978563;28;88884;-30
2023/10/25 09:19:56;;;;;;;17.52;7.97;;;9.80;99.90;;;;;;4977365;28;90013;-33
2023/10/25 09:22:27;;;;;;;13.50;8.60;;;9.80;99.90;;;;;;4978240;28;90152;-34
2023/10/25 09:24:55;;;;;;;8.38;6.65;;;9.90;99.90;;;;;;4977201;28;89210;-31
2023/10/25 09:27:22;;;;;;;10.07;8.35;;;10.00;99.90;;;;;;4978563;28;89414;-33
2023/10/25 09:29:49;;;;;;;11.80;8.18;;;10.10;99.90;;;;;;4959576;28;88884;-30
2023/10/25 09:32:20;;;;;;;10.70;8.35;;;10.10;99.90;;;;;;4971887;28;89140;-33
2023/10/25 09:34:46;;;;;;;9.70;8.27;;;10.20;99.90;;;;;;4959174;28;89596;-30
2023/10/25 09:37:13;;;;;;;7.60;6.30;;;10.40;99.90;;;;;;4972754;28;89242;-32
2023/10/25 09:39:39;;;;;;;9.48;7.00;;;10.40;99.90;;;;;;4971413;28;89819;-32
2023/10/25 09:42:12;;;;;;;11.15;7.28;;;10.50;99.90;;;;;;4971494;28;90065;-32
2023/10/25 09:44:45;;;;;;;11.43;7.65;;;10.60;99.90;;;;;;4966698;28;90409;-33
2023/10/25 09:47:11;;;;;;;7.88;6.20;;;10.60;99.90;;;;;;4964648;28;90161;-33
2023/10/25 09:49:42;;;;;;;11.98;7.95;;;10.60;99.90;;;;;;4968433;28;89022;-34
2023/10/25 09:52:10;;;;;;;9.27;5.68;;;10.60;99.90;;;;;;4962720;28;90547;-32
2023/10/25 09:54:37;;;;;;;10.80;6.57;;;10.70;99.90;;;;;;4966944;28;90271;-30
2023/10/25 09:57:07;;;;;;;6.22;5.25;;;10.70;99.90;;;;;;4964280;28;90190;-31
2023/10/25 09:59:34;;;;;;;12.38;7.28;;;10.80;99.90;;;;;;4968284;28;89193;-34
2023/10/25 10:02:01;;;;;;;9.80;7.03;;;10.90;99.90;;;;;;4969278;28;90377;-31
2023/10/25 10:04:36;;;;;;;9.33;6.30;;;10.90;99.90;;;;;;4957973;28;90056;-32
2023/10/25 10:07:11;;;;;;;8.13;6.35;;;10.90;99.90;;;;;;4958771;28;89769;-32
2023/10/25 10:09:52;;;;;;;6.72;5.93;;;11.00;99.90;;;;;;4975747;28;89898;-32
2023/10/25 10:12:19;;;;;;;7.50;6.28;;;11.00;99.90;;;;;;4970137;28;90248;-32
2023/10/25 10:14:45;;;;;;;7.22;5.07;;;11.10;99.90;;;;;;4961839;28;89736;-33
2023/10/25 10:17:19;;;;;;;8.88;5.10;;;11.20;99.90;;;;;;4981012;28;89203;-31
2023/10/25 10:19:50;;;;;;;8.82;5.55;;;11.30;99.90;;;;;;4979909;28;89189;-32
2023/10/25 10:22:18;;;;;;;11.40;5.80;;;11.30;99.90;;;;;;4980581;28;90265;-31
2023/10/25 10:24:56;;;;;;;6.22;5.03;;;11.30;99.90;;;;;;4980343;28;88588;-30
2023/10/25 10:27:52;;;;;;;7.57;6.43;;;11.30;99.90;;;;;;4980698;28;89483;-33
2023/10/25 10:30:41;;;;;;;10.20;5.50;;;11.30;99.90;;;;;;4961549;28;89187;-33
2023/10/25 10:33:10;;;;;;;11.43;6.20;;;11.30;99.90;;;;;;4962197;28;90033;-32
2023/10/25 10:35:39;;;;;;;;;;;11.30;99.90;;;;;;4966622;28;90915;-31
2023/10/25 10:38:05;;;;;;;9.25;6.38;;;11.30;99.90;;;;;;4982350;28;90212;-31
2023/10/25 10:40:31;;;;;;;8.18;6.07;;;11.30;99.90;;;;;;4980884;28;88022;-31
2023/10/25 10:42:57;;;;;;;8.07;5.05;;;11.20;99.90;;;;;;4980283;28;89490;-30
2023/10/25 10:45:23;;;;;;;7.57;6.47;;;11.30;99.90;;;;;;4980010;28;89977;-33
2023/10/25 10:47:55;;;;;;;10.23;6.85;;;11.30;99.90;;;;;;4979902;28;89157;-33
2023/10/25 10:50:22;;;;;;;8.82;6.68;;;11.40;99.90;;;;;;4980781;28;88251;-32
2023/10/25 10:52:50;;;;;;;7.40;5.70;;;11.40;99.90;;;;;;4969442;28;90181;-33
2023/10/25 10:55:23;;;;;;;14.93;6.67;;;11.50;99.90;;;;;;4977110;28;89640;-32
2023/10/25 10:57:49;;;;;;;5.80;5.05;;;11.50;99.90;;;;;;4980108;28;89332;-33
2023/10/25 11:00:16;;;;;;;8.02;5.68;;;11.60;99.90;;;;;;4969279;28;90112;-32
2023/10/25 11:02:49;;;;;;;8.48;5.30;;;11.60;99.90;;;;;;4979521;28;90307;-30
2023/10/25 11:05:19;;;;;;;8.35;4.38;;;11.70;99.90;;;;;;4979808;28;89915;-30
2023/10/25 11:07:49;;;;;;;6.63;5.13;;;11.70;99.90;;;;;;4976070;28;89270;-32
2023/10/25 11:10:15;;;;;;;10.30;4.65;;;11.80;99.90;;;;;;4977946;28;88721;-33
2023/10/25 11:12:41;;;;;;;5.47;4.90;;;11.80;99.90;;;;;;4980960;28;89704;-31
2023/10/25 11:15:07;;;;;;;7.82;4.43;;;11.80;99.90;;;;;;4979179;28;90061;-32
2023/10/25 11:17:34;;;;;;;5.38;4.07;;;11.80;99.90;;;;;;4979774;28;89967;-35
2023/10/25 11:20:00;;;;;;;6.18;3.97;;;11.80;99.90;;;;;;4963519;28;88430;-30
2023/10/25 11:22:25;;;;;;;7.50;4.15;;;11.80;99.90;;;;;;4956323;28;90724;-32
2023/10/25 11:24:51;;;;;;;7.90;3.83;;;11.80;99.90;;;;;;4973071;28;90882;-31
2023/10/25 11:27:18;;;;;;;9.95;5.10;;;11.80;99.90;;;;;;4979593;28;89986;-30
2023/10/25 11:29:44;;;;;;;6.25;5.07;;;11.80;99.90;;;;;;4962323;28;88174;-33
2023/10/25 11:32:14;;;;;;;9.77;4.22;;;11.80;99.90;;;;;;4965687;28;90335;-30
2023/10/25 11:34:42;;;;;;;7.43;4.90;;;11.80;99.90;;;;;;4970759;28;90656;-34
2023/10/25 11:37:08;;;;;;;;;;;11.80;99.90;;;;;;4940810;28;90017;-34
2023/10/25 11:39:54;;;;;;;4.78;4.05;;;11.70;99.90;;;;;;4974317;28;89068;-31
2023/10/25 11:42:20;;;;;;;7.28;4.57;;;11.80;99.90;;;;;;4968023;28;90390;-31
2023/10/25 11:44:46;;;;;;;7.45;4.28;;;11.80;99.90;;;;;;4970010;28;89391;-32
2023/10/25 11:47:19;;;;;;;7.47;4.22;;;11.80;99.90;;;;;;4968636;28;89543;-33
2023/10/25 11:49:50;;;;;;;5.72;4.35;;;11.70;99.90;;;;;;4973596;28;88983;-32
2023/10/25 11:52:19;;;;;;;6.00;4.40;;;11.70;99.90;;;;;;4971285;28;90744;-33
2023/10/25 11:54:44;;;;;;;5.95;3.85;;;11.80;99.90;;;;;;4953918;28;88856;-32
2023/10/25 11:57:10;;;;;;;16.65;5.28;;;11.70;99.90;;;;;;4976867;28;89495;-34
2023/10/25 11:59:36;;;;;;;5.13;4.57;;;11.70;99.90;;;;;;4974574;28;88687;-32
2023/10/25 12:02:01;;;;;;;9.00;4.78;;;11.70;99.90;;;;;;4977281;28;91004;-34
2023/10/25 12:04:27;;;;;;;4.47;3.63;;;11.70;99.90;;;;;;4971489;28;89959;-34
2023/10/25 12:06:53;;;;;;;4.65;4.30;;;11.70;99.90;;;;;;4971678;28;89711;-32
2023/10/25 12:09:18;;;;;;;4.30;3.72;;;11.80;99.90;;;;;;4977077;28;89139;-32
2023/10/25 12:11:44;;;;;;;11.43;4.80;;;11.70;99.90;;;;;;4972616;28;89912;-32
2023/10/25 12:14:10;;;;;;;5.85;4.75;;;11.70;99.90;;;;;;4973543;28;91453;-30
2023/10/25 12:16:35;;;;;;;5.88;4.25;;;11.70;99.90;;;;;;4971097;28;90212;-32
2023/10/25 12:19:01;;;;;;;7.50;4.40;;;11.70;99.90;;;;;;4974248;28;87921;-33
2023/10/25 12:21:26;;;;;;;8.43;3.83;;;11.70;99.90;;;;;;4973455;28;89863;-32
2023/10/25 12:23:52;;;;;;;4.85;4.30;;;11.70;99.90;;;;;;4973931;28;90279;-33
2023/10/25 12:26:18;;;;;;;10.02;6.28;;;11.70;99.90;;;;;;4973440;28;89565;-32
2023/10/25 12:28:43;;;;;;;18.65;5.80;;;11.60;99.90;;;;;;4956068;28;88337;-32
2023/10/25 12:31:09;;;;;;;10.68;3.88;;;11.60;99.90;;;;;;4973244;28;92178;-33
2023/10/25 12:33:34;;;;;;;3.92;3.55;;;11.60;99.90;;;;;;4971868;28;90043;-30
2023/10/25 12:36:02;;;;;;;6.18;4.40;;;11.60;99.90;;;;;;4973881;28;89469;-30
2023/10/25 12:38:28;;;;;;;12.10;4.20;;;11.60;99.90;;;;;;4974747;28;89725;-31
2023/10/25 12:40:54;;;;;;;7.80;4.00;;;11.60;99.90;;;;;;4973908;28;90388;-32
2023/10/25 12:43:19;;;;;;;5.57;4.10;;;11.60;99.90;;;;;;4974552;28;91221;-31
2023/10/25 12:45:45;;;;;;;7.72;5.50;;;11.60;99.90;;;;;;4967865;28;89655;-32
2023/10/25 12:48:10;;;;;;;14.88;4.60;;;11.80;99.90;;;;;;4976418;28;89142;-31
2023/10/25 12:50:36;;;;;;;6.70;3.97;;;11.80;99.90;;;;;;4972969;28;90549;-33
2023/10/25 12:53:02;;;;;;;6.57;4.78;;;11.90;99.90;;;;;;4975100;28;90258;-31